createdAt,value
2022-12-26T00:01:57.230Z,100.00
2022-12-26T00:04:49.352Z,100.00
2022-12-26T00:07:11.661Z,100.00
2022-12-26T00:09:38.722Z,100.00
2022-12-26T00:12:06.294Z,100.00
2022-12-26T00:14:33.405Z,99.78
2022-12-26T00:17:00.541Z,99.65
2022-12-26T00:19:27.677Z,99.79
2022-12-26T00:21:54.796Z,99.71
2022-12-26T00:24:21.951Z,99.76
2022-12-26T00:26:49.163Z,100.00
2022-12-26T00:29:16.320Z,100.00
2022-12-26T00:31:43.471Z,99.78
2022-12-26T00:34:10.954Z,100.00
2022-12-26T00:36:37.973Z,99.98
2022-12-26T00:39:05.024Z,100.00
2022-12-26T00:41:32.865Z,100.00
2022-12-26T00:44:00.085Z,100.00
2022-12-26T00:46:28.518Z,100.00
2022-12-26T00:48:56.027Z,100.00
2022-12-26T00:51:23.192Z,100.00
2022-12-26T00:53:50.397Z,100.00
2022-12-26T00:56:17.823Z,100.00
2022-12-26T00:58:45.011Z,100.00
2022-12-26T01:01:23.414Z,100.00
2022-12-26T01:03:51.559Z,100.00
2022-12-26T01:06:19.123Z,100.00
2022-12-26T01:08:46.350Z,100.00
2022-12-26T01:11:36.324Z,100.00
2022-12-26T01:14:04.435Z,99.92
2022-12-26T01:16:31.637Z,100.00
2022-12-26T01:18:58.775Z,99.77
2022-12-26T01:21:25.789Z,100.00
2022-12-26T01:23:52.924Z,100.00
2022-12-26T01:26:20.244Z,100.00
2022-12-26T01:28:53.429Z,100.00
2022-12-26T01:31:21.984Z,99.83
2022-12-26T01:33:49.467Z,100.00
2022-12-26T01:36:18.412Z,99.63
2022-12-26T01:38:46.347Z,100.00
2022-12-26T01:41:17.340Z,100.00
2022-12-26T01:43:53.838Z,99.60
2022-12-26T01:46:45.042Z,99.66
2022-12-26T01:49:33.886Z,99.42
2022-12-26T01:52:09.621Z,99.47
2022-12-26T01:54:42.931Z,99.73
2022-12-26T01:57:27.504Z,99.76
2022-12-26T01:59:57.392Z,100.00
2022-12-26T02:02:29.122Z,99.75
2022-12-26T02:05:16.481Z,99.83
2022-12-26T02:07:47.072Z,99.37
2022-12-26T02:10:22.160Z,99.97
2022-12-26T02:12:50.625Z,99.86
2022-12-26T02:15:18.820Z,98.85
2022-12-26T02:17:48.951Z,99.22
2022-12-26T02:20:40.093Z,99.74
2022-12-26T02:24:31.292Z,99.25
2022-12-26T02:27:24.595Z,99.14
2022-12-26T02:30:28.697Z,99.58
2022-12-26T02:33:29.011Z,99.05
2022-12-26T02:36:31.458Z,99.46
2022-12-26T02:40:01.795Z,99.30
2022-12-26T02:43:08.909Z,99.55
2022-12-26T02:46:31.526Z,98.95
2022-12-26T02:50:07.639Z,98.77
2022-12-26T02:53:24.281Z,98.36
2022-12-26T02:56:24.473Z,98.87
2022-12-26T03:00:07.780Z,98.57
2022-12-26T03:03:18.390Z,98.80
2022-12-26T03:06:38.665Z,98.94
2022-12-26T03:09:41.153Z,99.09
2022-12-26T03:13:13.442Z,98.63
2022-12-26T03:16:32.405Z,98.98
2022-12-26T03:19:10.062Z,98.80
2022-12-26T03:21:45.389Z,98.81
2022-12-26T03:24:16.986Z,98.93
2022-12-26T03:26:54.451Z,98.45
2022-12-26T03:29:42.530Z,98.42
2022-12-26T03:32:13.054Z,98.84
2022-12-26T03:34:45.023Z,98.19
2022-12-26T03:37:48.404Z,98.05
2022-12-26T03:41:10.918Z,98.30
2022-12-26T03:44:17.176Z,98.69
2022-12-26T03:48:04.386Z,98.32
2022-12-26T03:51:10.698Z,97.85
2022-12-26T03:54:19.334Z,98.08
2022-12-26T03:57:31.340Z,98.04
2022-12-26T04:00:30.411Z,97.81
2022-12-26T04:03:28.879Z,97.88
2022-12-26T04:06:17.180Z,97.94
2022-12-26T04:09:33.330Z,97.94
2022-12-26T04:12:20.607Z,98.34
2022-12-26T04:15:30.258Z,98.03
2022-12-26T04:18:33.818Z,98.31
2022-12-26T04:21:52.386Z,97.61
2022-12-26T04:24:48.655Z,97.56
2022-12-26T04:27:40.595Z,96.84
2022-12-26T04:30:27.682Z,97.21
2022-12-26T04:33:24.207Z,96.89
2022-12-26T04:36:23.027Z,96.74
2022-12-26T04:39:18.239Z,96.07
2022-12-26T04:42:05.296Z,95.89
2022-12-26T04:44:35.183Z,95.61
2022-12-26T04:47:02.238Z,95.68
2022-12-26T04:49:47.825Z,95.61
2022-12-26T04:52:15.677Z,95.58
2022-12-26T04:54:43.245Z,95.44
2022-12-26T04:57:11.701Z,95.49
2022-12-26T04:59:38.735Z,96.04
2022-12-26T05:02:24.534Z,96.37
2022-12-26T05:05:10.321Z,95.93
2022-12-26T05:07:56.520Z,96.09
2022-12-26T05:10:28.730Z,96.24
2022-12-26T05:12:56.114Z,96.13
2022-12-26T05:15:23.519Z,96.05
2022-12-26T05:18:09.054Z,96.36
2022-12-26T05:20:54.796Z,95.87
2022-12-26T05:23:45.279Z,96.06
2022-12-26T05:26:40.621Z,95.84
2022-12-26T05:29:08.081Z,96.31
2022-12-26T05:31:36.835Z,96.14
2022-12-26T05:34:12.090Z,96.19
2022-12-26T05:36:51.475Z,96.22
2022-12-26T05:39:19.041Z,95.67
2022-12-26T05:41:46.180Z,95.65
2022-12-26T05:44:13.412Z,95.81
2022-12-26T05:46:42.544Z,95.87
2022-12-26T05:49:10.330Z,96.02
2022-12-26T05:51:37.581Z,96.30
2022-12-26T05:54:05.540Z,96.21
2022-12-26T05:56:32.677Z,96.72
2022-12-26T05:59:01.873Z,96.41
2022-12-26T06:01:30.717Z,96.73
2022-12-26T06:04:00.586Z,96.37
2022-12-26T06:06:28.345Z,96.37
2022-12-26T06:08:57.397Z,96.74
2022-12-26T06:11:26.989Z,96.18
2022-12-26T06:13:55.004Z,96.09
2022-12-26T06:16:22.484Z,96.23
2022-12-26T06:18:49.660Z,96.18
2022-12-26T06:21:20.230Z,96.23
2022-12-26T06:23:48.447Z,96.00
2022-12-26T06:26:16.880Z,96.17
2022-12-26T06:28:45.263Z,96.34
2022-12-26T06:31:20.448Z,96.23
2022-12-26T06:33:57.967Z,95.90
2022-12-26T06:36:27.493Z,96.17
2022-12-26T06:38:55.440Z,96.14
2022-12-26T06:41:24.968Z,96.13
2022-12-26T06:43:52.968Z,96.03
2022-12-26T06:46:24.254Z,96.19
2022-12-26T06:48:52.222Z,96.13
2022-12-26T06:51:26.884Z,96.17
2022-12-26T06:53:54.656Z,95.92
2022-12-26T06:56:26.614Z,95.77
2022-12-26T06:58:59.925Z,96.20
2022-12-26T07:01:30.567Z,95.68
2022-12-26T07:03:58.909Z,96.13
2022-12-26T07:06:35.465Z,95.38
2022-12-26T07:09:09.840Z,95.71
2022-12-26T07:11:41.954Z,95.77
2022-12-26T07:14:09.657Z,95.25
2022-12-26T07:16:39.480Z,95.96
2022-12-26T07:19:07.376Z,95.71
2022-12-26T07:21:40.111Z,95.69
2022-12-26T07:24:22.360Z,95.37
2022-12-26T07:26:50.147Z,94.99
2022-12-26T07:29:17.919Z,95.19
2022-12-26T07:31:45.750Z,95.01
2022-12-26T07:34:12.912Z,94.99
2022-12-26T07:36:41.487Z,95.33
2022-12-26T07:39:08.794Z,95.03
2022-12-26T07:41:54.610Z,94.78
2022-12-26T07:44:21.640Z,95.09
2022-12-26T07:46:49.056Z,95.15
2022-12-26T07:49:16.742Z,95.26
2022-12-26T07:51:44.001Z,94.79
2022-12-26T07:54:12.115Z,95.14
2022-12-26T07:56:41.302Z,95.12
2022-12-26T07:59:16.370Z,94.60
2022-12-26T08:01:44.508Z,94.79
2022-12-26T08:04:13.509Z,94.84
2022-12-26T08:06:40.616Z,95.19
2022-12-26T08:09:17.933Z,95.01
2022-12-26T08:11:45.462Z,95.28
2022-12-26T08:14:14.146Z,95.19
2022-12-26T08:16:41.331Z,95.12
2022-12-26T08:19:08.712Z,94.98
2022-12-26T08:21:35.976Z,95.46
2022-12-26T08:24:03.175Z,95.19
2022-12-26T08:26:30.261Z,95.40
2022-12-26T08:28:58.141Z,95.53
2022-12-26T08:33:57.735Z,95.50
2022-12-26T08:36:25.329Z,95.02
2022-12-26T08:38:52.998Z,95.46
2022-12-26T08:41:20.460Z,95.63
2022-12-26T08:46:40.222Z,95.34
2022-12-26T08:49:07.373Z,95.22
2022-12-26T08:51:36.479Z,94.91
2022-12-26T08:54:03.873Z,94.98
2022-12-26T08:56:31.481Z,95.68
2022-12-26T08:58:58.631Z,95.28
2022-12-26T09:01:29.780Z,95.62
2022-12-26T09:04:02.257Z,96.75
2022-12-26T09:06:34.281Z,96.30
2022-12-26T09:09:06.187Z,95.86
2022-12-26T09:11:33.727Z,96.09
2022-12-26T09:14:04.231Z,95.43
2022-12-26T09:16:43.016Z,95.35
2022-12-26T09:19:18.908Z,95.23
2022-12-26T09:21:48.398Z,95.77
2022-12-26T09:24:18.462Z,94.97
2022-12-26T09:26:45.912Z,94.76
2022-12-26T09:29:15.503Z,94.88
2022-12-26T09:31:42.626Z,94.54
2022-12-26T09:34:09.811Z,94.42
2022-12-26T09:36:39.171Z,94.34
2022-12-26T09:39:07.506Z,94.17
2022-12-26T09:42:06.028Z,94.37
2022-12-26T09:45:15.127Z,94.33
2022-12-26T09:48:19.492Z,94.37
2022-12-26T09:50:51.607Z,94.34
2022-12-26T09:53:34.972Z,94.26
2022-12-26T09:56:23.780Z,93.63
2022-12-26T09:59:17.821Z,93.64
2022-12-26T10:01:50.351Z,93.47
2022-12-26T10:04:29.886Z,93.57
2022-12-26T10:07:42.618Z,93.19
2022-12-26T10:10:45.694Z,92.99
2022-12-26T10:13:48.043Z,93.00
2022-12-26T10:17:06.184Z,92.78
2022-12-26T10:19:54.789Z,92.44
2022-12-26T10:23:45.427Z,92.35
2022-12-26T10:26:36.094Z,92.37
2022-12-26T10:29:08.965Z,92.21
2022-12-26T10:31:54.021Z,92.72
2022-12-26T10:34:36.518Z,92.95
2022-12-26T10:37:34.987Z,92.51
2022-12-26T10:40:39.188Z,92.78
2022-12-26T10:43:30.255Z,92.51
2022-12-26T10:46:06.043Z,92.80
2022-12-26T10:48:33.472Z,92.36
2022-12-26T10:51:00.520Z,92.29
2022-12-26T10:53:27.889Z,92.12
2022-12-26T10:55:57.096Z,91.89
2022-12-26T10:58:35.845Z,92.00
2022-12-26T11:01:40.101Z,92.43
2022-12-26T11:07:17.544Z,91.94
2022-12-26T11:09:46.113Z,92.08
2022-12-26T11:12:47.200Z,92.10
2022-12-26T11:15:39.464Z,92.31
2022-12-26T11:18:46.477Z,92.39
2022-12-26T11:21:19.519Z,92.19
2022-12-26T11:23:52.631Z,92.04
2022-12-26T11:26:29.698Z,92.34
2022-12-26T11:29:25.658Z,92.03
2022-12-26T11:32:04.884Z,92.38
2022-12-26T11:34:46.419Z,91.39
2022-12-26T11:37:34.352Z,91.96
2022-12-26T11:40:01.665Z,92.20
2022-12-26T11:42:28.963Z,92.13
2022-12-26T11:44:57.836Z,91.89
2022-12-26T11:47:29.888Z,91.71
2022-12-26T11:50:12.112Z,91.45
2022-12-26T11:52:56.900Z,91.42
2022-12-26T11:55:24.241Z,91.10
2022-12-26T11:58:17.982Z,91.08
2022-12-26T12:00:50.908Z,90.79
2022-12-26T12:03:50.057Z,90.70
2022-12-26T12:06:46.353Z,90.44
2022-12-26T12:09:41.680Z,89.94
2022-12-26T12:12:58.091Z,90.09
2022-12-26T12:16:12.314Z,90.45
2022-12-26T12:19:51.087Z,90.19
2022-12-26T12:22:45.007Z,90.63
2022-12-26T12:26:11.692Z,90.50
2022-12-26T12:29:34.429Z,90.86
2022-12-26T12:33:06.347Z,91.35
2022-12-26T12:36:00.542Z,91.39
2022-12-26T12:39:00.868Z,91.39
2022-12-26T12:42:08.935Z,91.59
2022-12-26T12:46:02.059Z,91.43
2022-12-26T12:49:07.669Z,91.96
2022-12-26T12:52:09.410Z,92.00
2022-12-26T12:55:21.404Z,92.06
2022-12-26T12:58:07.474Z,91.69
2022-12-26T13:00:56.010Z,91.24
2022-12-26T13:03:48.874Z,91.53
2022-12-26T13:06:46.324Z,91.91
2022-12-26T13:09:42.687Z,91.78
2022-12-26T13:12:36.935Z,91.32
2022-12-26T13:15:22.401Z,91.27
2022-12-26T13:18:07.838Z,91.22
2022-12-26T13:20:58.601Z,91.54
2022-12-26T13:23:51.427Z,91.72
2022-12-26T13:26:31.068Z,91.47
2022-12-26T13:29:26.084Z,91.29
2022-12-26T13:31:53.387Z,91.57
2022-12-26T13:34:21.447Z,91.49
2022-12-26T13:36:55.924Z,91.69
2022-12-26T13:39:26.222Z,91.63
2022-12-26T13:42:29.245Z,91.77
2022-12-26T13:45:16.361Z,91.42
2022-12-26T13:47:43.495Z,91.04
2022-12-26T13:50:56.623Z,91.31
2022-12-26T13:53:33.997Z,91.26
2022-12-26T13:56:30.863Z,91.40
2022-12-26T13:59:32.617Z,91.48
2022-12-26T14:03:17.503Z,91.39
2022-12-26T14:05:57.157Z,91.49
2022-12-26T14:09:12.330Z,90.94
2022-12-26T14:12:35.219Z,91.21
2022-12-26T14:15:28.660Z,91.23
2022-12-26T14:18:45.181Z,91.00
2022-12-26T14:21:46.798Z,90.84
2022-12-26T14:24:49.290Z,91.22
2022-12-26T14:27:57.891Z,91.41
2022-12-26T14:31:08.410Z,90.94
2022-12-26T14:34:06.908Z,90.89
2022-12-26T14:37:23.438Z,91.20
2022-12-26T14:40:35.457Z,91.61
2022-12-26T14:43:34.892Z,91.49
2022-12-26T14:46:26.302Z,91.42
2022-12-26T14:48:59.678Z,91.42
2022-12-26T14:51:37.369Z,91.62
2022-12-26T14:54:37.663Z,91.28
2022-12-26T14:57:44.319Z,91.83
2022-12-26T15:00:23.185Z,91.67
2022-12-26T15:03:24.687Z,91.97
2022-12-26T15:05:54.215Z,91.60
2022-12-26T15:09:32.126Z,91.15
2022-12-26T15:12:23.301Z,90.71
2022-12-26T15:15:47.758Z,90.94
2022-12-26T15:19:31.111Z,90.07
2022-12-26T15:22:09.441Z,90.64
2022-12-26T15:25:19.298Z,90.50
2022-12-26T15:28:32.285Z,90.60
2022-12-26T15:31:45.268Z,90.05
2022-12-26T15:34:37.401Z,89.87
2022-12-26T15:37:34.519Z,89.65
2022-12-26T15:40:24.483Z,89.74
2022-12-26T15:43:39.798Z,89.82
2022-12-26T15:46:45.710Z,89.80
2022-12-26T15:50:00.338Z,89.64
2022-12-26T15:53:02.073Z,89.82
2022-12-26T15:56:22.165Z,90.40
2022-12-26T15:59:42.719Z,90.60
2022-12-26T16:02:28.084Z,89.98
2022-12-26T16:05:37.651Z,90.41
2022-12-26T16:08:51.789Z,90.99
2022-12-26T16:11:50.312Z,91.03
2022-12-26T16:14:39.406Z,90.56
2022-12-26T16:17:13.472Z,91.24
2022-12-26T16:19:43.743Z,91.28
2022-12-26T16:22:48.800Z,91.39
2022-12-26T16:25:26.051Z,91.98
2022-12-26T16:27:59.990Z,92.17
2022-12-26T16:30:35.822Z,92.42
2022-12-26T16:33:04.320Z,92.08
2022-12-26T16:35:39.942Z,92.64
2022-12-26T16:38:18.168Z,93.08
2022-12-26T16:40:51.460Z,92.70
2022-12-26T16:43:18.496Z,93.08
2022-12-26T16:45:51.171Z,92.93
2022-12-26T16:48:23.876Z,93.46
2022-12-26T16:51:00.617Z,93.23
2022-12-26T16:53:40.169Z,93.10
2022-12-26T16:56:33.598Z,92.85
2022-12-26T16:59:18.728Z,92.38
2022-12-26T17:02:00.488Z,92.50
2022-12-26T17:04:30.315Z,92.97
2022-12-26T17:07:06.283Z,93.83
2022-12-26T17:09:49.566Z,94.45
2022-12-26T17:12:27.902Z,94.21
2022-12-26T17:14:56.946Z,94.29
2022-12-26T17:17:23.784Z,94.74
2022-12-26T17:19:54.902Z,94.82
2022-12-26T17:22:37.290Z,95.00
2022-12-26T17:25:28.029Z,93.60
2022-12-26T17:28:17.761Z,94.00
2022-12-26T17:30:53.265Z,94.65
2022-12-26T17:33:28.665Z,94.33
2022-12-26T17:38:51.998Z,93.48
2022-12-26T17:41:19.402Z,93.52
2022-12-26T17:43:47.919Z,93.41
2022-12-26T17:46:17.943Z,92.62
2022-12-26T17:48:45.719Z,92.81
2022-12-26T17:51:17.897Z,92.46
2022-12-26T17:53:51.292Z,92.49
2022-12-26T17:56:24.206Z,92.40
2022-12-26T17:58:51.568Z,92.00
2022-12-26T18:01:21.677Z,91.99
2022-12-26T18:03:51.994Z,91.54
2022-12-26T18:06:19.894Z,91.18
2022-12-26T18:08:47.085Z,91.56
2022-12-26T18:11:15.125Z,91.36
2022-12-26T18:13:43.124Z,90.80
2022-12-26T18:16:18.901Z,90.96
2022-12-26T18:18:48.403Z,91.64
2022-12-26T18:21:16.716Z,92.11
2022-12-26T18:23:44.343Z,92.13
2022-12-26T18:26:32.066Z,92.07
2022-12-26T18:28:59.188Z,91.24
2022-12-26T18:31:27.892Z,91.58
2022-12-26T18:33:55.881Z,91.90
2022-12-26T18:36:31.657Z,91.40
2022-12-26T18:38:58.991Z,92.12
2022-12-26T18:41:28.057Z,91.91
2022-12-26T18:43:55.180Z,91.53
2022-12-26T18:46:26.115Z,91.22
2022-12-26T18:48:56.541Z,91.50
2022-12-26T18:51:25.881Z,90.41
2022-12-26T18:53:53.094Z,89.65
2022-12-26T18:56:23.140Z,89.12
2022-12-26T18:58:57.579Z,89.50
2022-12-26T19:01:25.872Z,88.63
2022-12-26T19:03:53.967Z,88.16
2022-12-26T19:06:28.969Z,88.64
2022-12-26T19:08:57.101Z,87.07
2022-12-26T19:11:24.582Z,87.41
2022-12-26T19:13:51.695Z,86.07
2022-12-26T19:16:19.283Z,85.80
2022-12-26T19:18:46.379Z,86.08
2022-12-26T19:21:16.625Z,85.99
2022-12-26T19:23:47.690Z,85.91
2022-12-26T19:26:19.150Z,86.01
2022-12-26T19:28:55.565Z,86.76
2022-12-26T19:31:23.606Z,87.07
2022-12-26T19:33:50.966Z,86.82
2022-12-26T19:36:18.236Z,87.45
2022-12-26T19:38:45.443Z,87.21
2022-12-26T19:41:14.961Z,86.84
2022-12-26T19:43:42.803Z,86.94
2022-12-26T19:46:17.015Z,86.75
2022-12-26T19:48:44.603Z,85.74
2022-12-26T19:51:15.872Z,86.52
2022-12-26T19:53:44.782Z,86.99
2022-12-26T19:56:28.254Z,85.78
2022-12-26T19:58:56.907Z,87.19
2022-12-26T20:01:31.756Z,86.83
2022-12-26T20:04:02.751Z,86.26
2022-12-26T20:06:33.614Z,87.77
2022-12-26T20:09:09.485Z,87.14
2022-12-26T20:11:43.011Z,86.70
2022-12-26T20:14:19.120Z,86.65
2022-12-26T20:17:08.782Z,86.70
2022-12-26T20:19:37.022Z,87.34
2022-12-26T20:22:05.721Z,87.09
2022-12-26T20:24:33.761Z,86.98
2022-12-26T20:27:01.241Z,87.11
2022-12-26T20:29:28.409Z,87.14
2022-12-26T20:31:55.479Z,87.21
2022-12-26T20:34:23.198Z,87.26
2022-12-26T20:36:50.386Z,88.17
2022-12-26T20:39:19.593Z,87.33
2022-12-26T20:41:47.248Z,87.59
2022-12-26T20:44:16.431Z,88.31
2022-12-26T20:46:44.818Z,88.81
2022-12-26T20:49:12.593Z,88.08
2022-12-26T20:51:43.991Z,87.44
2022-12-26T20:54:14.058Z,87.80
2022-12-26T20:56:42.209Z,87.73
2022-12-26T20:59:10.232Z,88.38
2022-12-26T21:01:39.370Z,87.22
2022-12-26T21:04:08.047Z,87.66
2022-12-26T21:06:38.025Z,88.08
2022-12-26T21:09:09.269Z,87.88
2022-12-26T21:11:39.972Z,88.15
2022-12-26T21:14:21.920Z,88.11
2022-12-26T21:16:57.056Z,88.19
2022-12-26T21:19:28.129Z,88.50
2022-12-26T21:21:56.503Z,87.77
2022-12-26T21:24:29.395Z,88.04
2022-12-26T21:26:57.261Z,88.09
2022-12-26T21:29:33.242Z,88.56
2022-12-26T21:32:03.065Z,88.58
2022-12-26T21:34:33.010Z,88.41
2022-12-26T21:37:19.284Z,88.74
2022-12-26T21:39:47.432Z,88.81
2022-12-26T21:42:14.605Z,89.12
2022-12-26T21:44:41.797Z,89.07
2022-12-26T21:47:09.228Z,88.85
2022-12-26T21:49:37.291Z,87.89
2022-12-26T21:52:06.316Z,88.36
2022-12-26T21:54:52.527Z,88.21
2022-12-26T21:57:20.782Z,86.55
2022-12-26T21:59:57.071Z,87.00
2022-12-26T22:02:53.839Z,87.26
2022-12-26T22:05:28.111Z,86.50
2022-12-26T22:08:01.605Z,86.52
2022-12-26T22:10:51.387Z,86.49
2022-12-26T22:13:20.427Z,86.29
2022-12-26T22:16:05.358Z,85.67
2022-12-26T22:18:46.599Z,85.09
2022-12-26T22:21:21.560Z,84.95
2022-12-26T22:23:51.313Z,85.71
2022-12-26T22:26:21.477Z,85.57
2022-12-26T22:28:49.851Z,85.69
2022-12-26T22:31:25.505Z,86.12
2022-12-26T22:34:03.464Z,86.05
2022-12-26T22:36:32.319Z,84.56
2022-12-26T22:39:00.416Z,85.08
2022-12-26T22:41:28.736Z,84.77
2022-12-26T22:43:56.260Z,83.39
2022-12-26T22:46:23.490Z,84.18
2022-12-26T22:48:51.044Z,83.76
2022-12-26T22:51:23.004Z,83.76
2022-12-26T22:53:54.263Z,83.84
2022-12-26T22:56:21.379Z,84.30
2022-12-26T22:58:54.729Z,83.34
2022-12-26T23:01:22.994Z,83.57
2022-12-26T23:03:50.316Z,83.06
2022-12-26T23:06:24.730Z,83.55
2022-12-26T23:08:56.815Z,83.27
2022-12-26T23:11:34.465Z,83.49
2022-12-26T23:14:05.908Z,82.84
2022-12-26T23:16:56.238Z,82.42
2022-12-26T23:20:05.320Z,82.44
2022-12-26T23:22:33.345Z,82.05
2022-12-26T23:25:00.462Z,82.47
2022-12-26T23:27:46.045Z,82.05
2022-12-26T23:30:20.015Z,82.83
2022-12-26T23:32:53.225Z,82.73
2022-12-26T23:35:22.632Z,82.49
2022-12-26T23:37:50.598Z,80.59
2022-12-26T23:40:20.505Z,82.41
2022-12-26T23:42:47.763Z,82.39
2022-12-26T23:45:16.208Z,82.29
2022-12-26T23:47:45.712Z,81.89
2022-12-26T23:50:15.793Z,81.79
2022-12-26T23:52:43.837Z,81.63
2022-12-26T23:55:11.749Z,81.60
2022-12-26T23:57:38.891Z,82.45
